Maldives Meteorological Service

METAR

Station
VRMM
METAR VRMM 191500Z 08014KT 7000 FEW018 BKN250 28/22 Q1011 NOSIG=
VRMH
METAR VRMH 181500Z 11003KT 6000 SCT018TCU SCT120 27/24 Q1011=
VRMK
METAR VRMK 191500Z 03008KT 8000 FEW018 BKN270 28/23 Q1011=
VRMT
METAR VRMT 191500Z 02005KT 7000 FEW018 BKN260 28/24 Q1010=
VRMG
METAR VRMG 191500Z 05004KT 6000 FEW018 BKN260 29/24 Q1011 NOSIG=
Last Updated : 2018-01-19 20:00:10

SPECI

Station
VRMM
VRMH
VRMK
VRMT
VRMG
Last Updated : 2018-01-19 20:00:10